createdAt,value
2023-12-08T00:00:24.872Z,7.90
2023-12-08T00:02:54.015Z,7.90
2023-12-08T00:05:22.267Z,7.90
2023-12-08T00:07:51.994Z,7.90
2023-12-08T00:10:21.395Z,7.90
2023-12-08T00:12:50.922Z,7.90
2023-12-08T00:15:20.481Z,7.90
2023-12-08T00:17:47.532Z,7.90
2023-12-08T00:20:14.575Z,7.90
2023-12-08T00:22:41.518Z,7.80
2023-12-08T00:25:12.242Z,7.80
2023-12-08T00:27:41.316Z,7.80
2023-12-08T00:30:09.128Z,7.80
2023-12-08T00:32:39.341Z,7.80
2023-12-08T00:35:06.891Z,7.80
2023-12-08T00:37:36.062Z,7.80
2023-12-08T00:40:04.193Z,7.80
2023-12-08T00:42:31.120Z,7.80
2023-12-08T00:44:58.041Z,7.80
2023-12-08T00:47:30.203Z,7.80
2023-12-08T00:49:58.150Z,7.80
2023-12-08T00:52:27.603Z,7.80
2023-12-08T00:54:54.637Z,7.80
2023-12-08T00:57:21.627Z,7.70
2023-12-08T00:59:51.178Z,7.70
2023-12-08T01:02:18.132Z,7.70
2023-12-08T01:04:45.235Z,7.60
2023-12-08T01:07:12.258Z,7.60
2023-12-08T01:09:39.241Z,7.60
2023-12-08T01:12:06.879Z,7.60
2023-12-08T01:14:36.199Z,7.60
2023-12-08T01:17:03.226Z,7.60
2023-12-08T01:19:30.243Z,7.60
2023-12-08T01:21:57.242Z,7.60
2023-12-08T01:24:28.002Z,7.60
2023-12-08T01:26:57.071Z,7.60
2023-12-08T01:29:24.071Z,7.60
2023-12-08T01:31:51.043Z,7.60
2023-12-08T01:34:18.697Z,7.60
2023-12-08T01:36:45.957Z,7.60
2023-12-08T01:39:15.892Z,7.60
2023-12-08T01:41:42.924Z,7.60
2023-12-08T01:44:09.913Z,7.60
2023-12-08T01:46:39.992Z,7.60
2023-12-08T01:49:09.577Z,7.60
2023-12-08T01:51:36.627Z,7.60
2023-12-08T01:54:06.353Z,7.60
2023-12-08T01:56:33.418Z,7.60
2023-12-08T01:59:00.467Z,7.60
2023-12-08T02:01:27.863Z,7.60
2023-12-08T02:03:57.075Z,7.70
2023-12-08T02:06:24.057Z,7.70
2023-12-08T02:08:53.470Z,7.70
2023-12-08T02:11:20.496Z,7.70
2023-12-08T02:13:52.148Z,7.70
2023-12-08T02:16:27.199Z,7.70
2023-12-08T02:18:54.342Z,7.60
2023-12-08T02:21:21.359Z,7.60
2023-12-08T02:23:53.503Z,7.70
2023-12-08T02:26:22.786Z,7.70
2023-12-08T02:28:52.277Z,7.70
2023-12-08T02:31:23.965Z,7.60
2023-12-08T02:33:54.062Z,7.60
2023-12-08T02:36:21.053Z,7.60
2023-12-08T02:38:48.465Z,7.60
2023-12-08T02:41:15.477Z,7.60
2023-12-08T02:43:42.398Z,7.60
2023-12-08T02:46:09.378Z,7.60
2023-12-08T02:48:36.506Z,7.60
2023-12-08T02:51:04.761Z,7.60
2023-12-08T02:53:32.347Z,7.60
2023-12-08T02:56:04.102Z,7.60
2023-12-08T02:58:33.133Z,7.60
2023-12-08T03:01:00.172Z,7.60
2023-12-08T03:03:27.216Z,7.60
2023-12-08T03:05:56.487Z,7.60
2023-12-08T03:08:25.676Z,7.60
2023-12-08T03:10:55.010Z,7.50
2023-12-08T03:13:22.064Z,7.50
2023-12-08T03:15:51.241Z,7.50
2023-12-08T03:18:18.331Z,7.40
2023-12-08T03:20:47.964Z,7.30
2023-12-08T03:23:14.947Z,7.20
2023-12-08T03:25:41.909Z,7.20
2023-12-08T03:28:08.853Z,7.20
2023-12-08T03:30:35.816Z,7.10
2023-12-08T03:33:03.010Z,7.00
2023-12-08T03:35:30.206Z,7.00
2023-12-08T03:37:57.130Z,7.00
2023-12-08T03:40:26.496Z,7.00
2023-12-08T03:42:53.438Z,7.00
2023-12-08T03:45:22.777Z,7.00
2023-12-08T03:47:52.124Z,6.90
2023-12-08T03:50:19.102Z,6.90
2023-12-08T03:52:46.091Z,6.90
2023-12-08T03:55:18.437Z,6.90
2023-12-08T03:57:49.779Z,6.90
2023-12-08T04:00:17.207Z,6.80
2023-12-08T04:02:44.268Z,6.80
2023-12-08T04:05:15.829Z,6.80
2023-12-08T04:07:47.432Z,6.80
2023-12-08T04:10:16.702Z,6.80
2023-12-08T04:12:46.205Z,6.80
2023-12-08T04:15:13.344Z,6.80
2023-12-08T04:17:43.064Z,6.70
2023-12-08T04:20:14.817Z,6.70
2023-12-08T04:22:41.802Z,6.70
2023-12-08T04:25:13.643Z,6.70
2023-12-08T04:27:45.138Z,6.60
2023-12-08T04:30:14.791Z,6.60
2023-12-08T04:32:41.881Z,6.60
2023-12-08T04:35:13.438Z,6.60
2023-12-08T04:37:40.395Z,6.60
2023-12-08T04:40:10.747Z,6.60
2023-12-08T04:42:44.906Z,6.60
2023-12-08T04:45:15.558Z,6.50
2023-12-08T04:47:42.830Z,6.50
2023-12-08T04:50:10.140Z,6.50
2023-12-08T04:52:37.105Z,6.50
2023-12-08T04:55:05.629Z,6.40
2023-12-08T04:57:35.448Z,6.40
2023-12-08T05:00:03.860Z,6.40
2023-12-08T05:02:30.915Z,6.40
2023-12-08T05:04:57.858Z,6.30
2023-12-08T05:07:27.133Z,6.30
2023-12-08T05:09:54.325Z,6.30
2023-12-08T05:12:23.639Z,6.20
2023-12-08T05:14:52.917Z,6.30
2023-12-08T05:17:20.068Z,6.30
2023-12-08T05:19:47.098Z,6.30
2023-12-08T05:22:14.101Z,6.30
2023-12-08T05:24:41.044Z,6.30
2023-12-08T05:27:10.990Z,6.30
2023-12-08T05:29:38.496Z,6.30
2023-12-08T05:32:05.922Z,6.20
2023-12-08T05:34:32.901Z,6.20
2023-12-08T05:37:02.365Z,6.10
2023-12-08T05:39:29.599Z,6.00
2023-12-08T05:41:56.611Z,6.00
2023-12-08T05:44:23.557Z,5.90
2023-12-08T05:46:50.663Z,5.80
2023-12-08T05:49:24.838Z,5.80
2023-12-08T05:51:51.980Z,5.80
2023-12-08T05:54:21.559Z,5.80
2023-12-08T05:56:52.943Z,5.80
2023-12-08T05:59:19.940Z,5.80
2023-12-08T06:01:49.217Z,5.70
2023-12-08T06:04:20.853Z,5.70
2023-12-08T06:06:48.014Z,5.60
2023-12-08T06:09:17.446Z,5.60
2023-12-08T06:11:47.069Z,5.70
2023-12-08T06:14:18.654Z,5.70
2023-12-08T06:16:45.634Z,5.70
2023-12-08T06:19:12.760Z,5.80
2023-12-08T06:21:39.931Z,5.70
2023-12-08T06:24:09.144Z,5.80
2023-12-08T06:26:41.572Z,5.80
2023-12-08T06:29:09.781Z,5.80
2023-12-08T06:31:41.530Z,5.80
2023-12-08T06:34:16.534Z,5.90
2023-12-08T06:36:47.931Z,5.90
2023-12-08T06:39:17.822Z,5.90
2023-12-08T06:41:45.100Z,6.00
2023-12-08T06:44:13.918Z,6.10
2023-12-08T06:46:43.004Z,6.10
2023-12-08T06:49:10.209Z,6.10
2023-12-08T06:51:37.439Z,6.10
2023-12-08T06:54:07.617Z,6.10
2023-12-08T06:56:36.850Z,6.10
2023-12-08T06:59:06.353Z,6.10
2023-12-08T07:01:33.304Z,6.10
2023-12-08T07:04:00.384Z,6.10
2023-12-08T07:06:29.662Z,6.10
2023-12-08T07:08:56.765Z,6.10
2023-12-08T07:11:25.917Z,6.10
2023-12-08T07:13:57.234Z,6.10
2023-12-08T07:16:28.243Z,6.10
2023-12-08T07:18:59.146Z,6.10
2023-12-08T07:21:26.291Z,6.10
2023-12-08T07:23:53.279Z,6.00
2023-12-08T07:26:23.238Z,6.00
2023-12-08T07:28:52.211Z,5.90
2023-12-08T07:31:22.304Z,5.90
2023-12-08T07:33:50.279Z,5.90
2023-12-08T07:36:19.678Z,5.80
2023-12-08T07:38:48.898Z,5.80
2023-12-08T07:41:20.813Z,5.80
2023-12-08T07:43:58.375Z,5.80
2023-12-08T07:46:25.378Z,5.80
2023-12-08T07:48:52.537Z,5.80
2023-12-08T07:51:20.378Z,5.80
2023-12-08T07:53:47.476Z,5.80
2023-12-08T07:56:14.458Z,5.80
2023-12-08T07:58:43.732Z,5.70
2023-12-08T08:01:10.690Z,5.80
2023-12-08T08:03:39.986Z,5.80
2023-12-08T08:06:09.515Z,5.80
2023-12-08T08:08:39.190Z,5.90
2023-12-08T08:11:09.066Z,5.90
2023-12-08T08:13:36.797Z,6.00
2023-12-08T08:16:03.915Z,6.00
2023-12-08T08:18:33.315Z,6.00
2023-12-08T08:21:02.785Z,6.10
2023-12-08T08:23:32.278Z,6.20
2023-12-08T08:25:59.269Z,6.30
2023-12-08T08:28:30.612Z,6.30
2023-12-08T08:30:59.691Z,6.40
2023-12-08T08:33:29.251Z,6.40
2023-12-08T08:35:56.287Z,6.50
2023-12-08T08:38:25.851Z,6.50
2023-12-08T08:40:55.884Z,6.50
2023-12-08T08:43:22.847Z,6.50
2023-12-08T08:45:51.999Z,6.50
2023-12-08T08:48:20.804Z,6.60
2023-12-08T08:50:50.421Z,6.60
2023-12-08T08:53:19.897Z,6.70
2023-12-08T08:55:49.183Z,6.70
2023-12-08T08:58:16.601Z,6.70
2023-12-08T09:00:46.778Z,6.70
2023-12-08T09:03:16.053Z,6.70
2023-12-08T09:05:45.382Z,6.70
2023-12-08T09:08:12.542Z,6.70
2023-12-08T09:10:48.305Z,6.60
2023-12-08T09:13:15.722Z,6.60
2023-12-08T09:15:47.362Z,6.60
2023-12-08T09:18:16.877Z,6.60
2023-12-08T09:20:44.967Z,6.60
2023-12-08T09:23:12.892Z,6.60
2023-12-08T09:25:40.313Z,6.60
2023-12-08T09:28:09.794Z,6.70
2023-12-08T09:30:36.766Z,6.70
2023-12-08T09:33:04.719Z,6.70
2023-12-08T09:35:32.483Z,6.70
2023-12-08T09:38:02.593Z,6.80
2023-12-08T09:40:32.488Z,6.80
2023-12-08T09:43:03.494Z,6.90
2023-12-08T09:45:32.553Z,6.90
2023-12-08T09:47:59.590Z,7.00
2023-12-08T09:50:26.590Z,7.00
2023-12-08T09:52:54.839Z,7.00
2023-12-08T09:55:27.940Z,7.20
2023-12-08T09:57:55.043Z,7.20
2023-12-08T10:00:23.631Z,7.30
2023-12-08T10:02:53.059Z,7.40
2023-12-08T10:05:22.509Z,7.40
2023-12-08T10:07:52.778Z,7.50
2023-12-08T10:10:21.171Z,7.50
2023-12-08T10:12:48.928Z,7.50
2023-12-08T10:15:17.149Z,7.60
2023-12-08T10:17:50.193Z,7.60
2023-12-08T10:20:18.360Z,7.70
2023-12-08T10:22:51.641Z,7.80
2023-12-08T10:25:25.842Z,7.80
2023-12-08T10:27:58.528Z,7.80
2023-12-08T10:30:28.749Z,8.00
2023-12-08T10:32:58.678Z,8.00
2023-12-08T10:35:26.373Z,8.00
2023-12-08T10:37:53.608Z,8.10
2023-12-08T10:40:23.582Z,8.10
2023-12-08T10:42:50.608Z,8.10
2023-12-08T10:45:20.523Z,8.20
2023-12-08T10:47:51.932Z,8.20
2023-12-08T10:50:20.065Z,8.30
2023-12-08T10:52:49.575Z,8.30
2023-12-08T10:55:17.222Z,8.40
2023-12-08T10:57:44.887Z,8.40
2023-12-08T11:00:17.106Z,8.50
2023-12-08T11:02:50.275Z,8.50
2023-12-08T11:05:26.633Z,8.50
2023-12-08T11:07:55.938Z,8.60
2023-12-08T11:10:22.960Z,8.60
2023-12-08T11:12:56.702Z,8.60
2023-12-08T11:15:23.821Z,8.70
2023-12-08T11:17:54.342Z,8.80
2023-12-08T11:20:23.067Z,8.80
2023-12-08T11:22:52.308Z,8.90
2023-12-08T11:25:29.073Z,8.90
2023-12-08T11:28:11.135Z,9.00
2023-12-08T11:30:57.937Z,9.00
2023-12-08T11:33:44.985Z,9.00
2023-12-08T11:36:15.892Z,9.00
2023-12-08T11:38:42.940Z,9.00
2023-12-08T11:41:19.570Z,9.00
2023-12-08T11:43:46.692Z,9.00
2023-12-08T11:46:14.430Z,9.10
2023-12-08T11:48:44.275Z,9.10
2023-12-08T11:51:14.074Z,9.10
2023-12-08T11:53:57.925Z,9.20
2023-12-08T11:56:43.721Z,9.20
2023-12-08T11:59:21.249Z,9.20
2023-12-08T12:01:50.533Z,9.20
2023-12-08T12:04:20.465Z,9.20
2023-12-08T12:06:47.794Z,9.20
2023-12-08T12:09:17.652Z,9.20
2023-12-08T12:11:44.802Z,9.30
2023-12-08T12:14:11.851Z,9.30
2023-12-08T12:16:41.853Z,9.30
2023-12-08T12:19:09.526Z,9.40
2023-12-08T12:21:37.436Z,9.40
2023-12-08T12:24:07.679Z,9.40
2023-12-08T12:26:37.511Z,9.40
2023-12-08T12:29:04.751Z,9.40
2023-12-08T12:31:31.773Z,9.40
2023-12-08T12:34:01.455Z,9.40
2023-12-08T12:36:30.103Z,9.40
2023-12-08T12:38:57.661Z,9.50
2023-12-08T12:41:26.946Z,9.50
2023-12-08T12:43:57.826Z,9.50
2023-12-08T12:46:26.982Z,9.50
2023-12-08T12:48:54.776Z,9.50
2023-12-08T12:51:37.554Z,9.50
2023-12-08T12:54:09.157Z,9.60
2023-12-08T12:56:36.889Z,9.60
2023-12-08T12:59:04.502Z,9.60
2023-12-08T13:01:31.803Z,9.60
2023-12-08T13:03:59.643Z,9.60
2023-12-08T13:06:31.297Z,9.60
2023-12-08T13:08:59.034Z,9.60
2023-12-08T13:11:26.690Z,9.50
2023-12-08T13:13:54.114Z,9.50
2023-12-08T13:16:21.237Z,9.50
2023-12-08T13:18:50.972Z,9.40
2023-12-08T13:21:20.675Z,9.40
2023-12-08T13:23:48.289Z,9.40
2023-12-08T13:26:18.266Z,9.40
2023-12-08T13:28:45.761Z,9.50
2023-12-08T13:31:12.751Z,9.50
2023-12-08T13:33:41.963Z,9.50
2023-12-08T13:36:11.520Z,9.60
2023-12-08T13:38:38.585Z,9.60
2023-12-08T13:41:08.897Z,9.60
2023-12-08T13:43:39.014Z,9.60
2023-12-08T13:46:08.237Z,9.70
2023-12-08T13:48:37.749Z,9.70
2023-12-08T13:51:14.170Z,9.70
2023-12-08T13:53:52.070Z,9.70
2023-12-08T13:56:23.924Z,9.70
2023-12-08T13:58:50.956Z,9.70
2023-12-08T14:01:20.648Z,9.70
2023-12-08T14:03:47.848Z,9.70
2023-12-08T14:06:15.146Z,9.70
2023-12-08T14:08:44.385Z,9.70
2023-12-08T14:11:11.437Z,9.70
2023-12-08T14:13:38.424Z,9.70
2023-12-08T14:16:10.099Z,9.70
2023-12-08T14:18:37.345Z,9.70
2023-12-08T14:21:06.704Z,9.70
2023-12-08T14:23:37.017Z,9.70
2023-12-08T14:26:06.875Z,9.70
2023-12-08T14:28:33.899Z,9.70
2023-12-08T14:31:00.902Z,9.80
2023-12-08T14:33:33.442Z,9.70
2023-12-08T14:36:02.117Z,9.70
2023-12-08T14:38:31.800Z,9.70
2023-12-08T14:41:01.373Z,9.60
2023-12-08T14:43:28.356Z,9.50
2023-12-08T14:45:59.971Z,9.50
2023-12-08T14:48:27.274Z,9.40
2023-12-08T14:50:58.190Z,9.40
2023-12-08T14:53:25.267Z,9.40
2023-12-08T14:55:59.336Z,9.40
2023-12-08T14:58:27.672Z,9.30
2023-12-08T15:00:54.849Z,9.30
2023-12-08T15:03:22.068Z,9.20
2023-12-08T15:05:49.328Z,9.20
2023-12-08T15:08:16.427Z,9.20
2023-12-08T15:10:43.401Z,9.20
2023-12-08T15:13:13.874Z,9.10
2023-12-08T15:15:48.306Z,9.10
2023-12-08T15:18:19.933Z,9.20
2023-12-08T15:20:56.002Z,9.10
2023-12-08T15:23:25.094Z,9.10
2023-12-08T15:25:54.941Z,9.20
2023-12-08T15:28:24.199Z,9.10
2023-12-08T15:30:52.497Z,9.10
2023-12-08T15:33:24.022Z,9.10
2023-12-08T15:35:51.519Z,9.10
2023-12-08T15:38:22.777Z,9.00
2023-12-08T15:40:52.249Z,9.00
2023-12-08T15:43:19.226Z,9.00
2023-12-08T15:45:46.230Z,9.00
2023-12-08T15:48:15.661Z,9.00
2023-12-08T15:50:42.821Z,8.90
2023-12-08T15:53:09.849Z,8.90
2023-12-08T15:55:36.903Z,8.80
2023-12-08T15:58:03.897Z,8.80
2023-12-08T16:00:33.487Z,8.80
2023-12-08T16:03:01.604Z,8.70
2023-12-08T16:05:28.739Z,8.60
2023-12-08T16:07:58.142Z,8.60
2023-12-08T16:10:29.831Z,8.60
2023-12-08T16:13:01.409Z,8.60
2023-12-08T16:15:28.492Z,8.60
2023-12-08T16:17:57.833Z,8.60
2023-12-08T16:20:27.410Z,8.60
2023-12-08T16:22:54.381Z,8.50
2023-12-08T16:25:21.431Z,8.60
2023-12-08T16:27:48.346Z,8.60
2023-12-08T16:30:20.534Z,8.50
2023-12-08T16:32:50.268Z,8.50
2023-12-08T16:35:17.841Z,8.50
2023-12-08T16:37:47.778Z,8.50
2023-12-08T16:40:14.789Z,8.40
2023-12-08T16:42:41.833Z,8.40
2023-12-08T16:45:11.569Z,8.40
2023-12-08T16:47:40.938Z,8.30
2023-12-08T16:50:08.696Z,8.30
2023-12-08T16:52:37.832Z,8.30
2023-12-08T16:55:05.131Z,8.30
2023-12-08T16:57:34.341Z,8.20
2023-12-08T17:00:01.436Z,8.30
2023-12-08T17:02:28.727Z,8.30
2023-12-08T17:04:55.932Z,8.30
2023-12-08T17:07:22.912Z,8.30
2023-12-08T17:09:52.269Z,8.20
2023-12-08T17:12:19.246Z,8.20
2023-12-08T17:14:46.690Z,8.20
2023-12-08T17:17:13.708Z,8.20
2023-12-08T17:19:45.082Z,8.20
2023-12-08T17:22:12.599Z,8.10
2023-12-08T17:24:44.457Z,8.10
2023-12-08T17:27:11.469Z,8.00
2023-12-08T17:29:38.490Z,8.00
2023-12-08T17:32:05.495Z,7.90
2023-12-08T17:34:32.674Z,7.90
2023-12-08T17:37:00.211Z,8.00
2023-12-08T17:39:27.192Z,8.00
2023-12-08T17:41:54.280Z,8.00
2023-12-08T17:44:23.861Z,8.00
2023-12-08T17:46:50.938Z,8.00
2023-12-08T17:49:20.566Z,8.00
2023-12-08T17:51:49.085Z,8.00
2023-12-08T17:54:19.543Z,8.00
2023-12-08T17:56:46.544Z,8.00
2023-12-08T17:59:15.610Z,8.00
2023-12-08T18:01:42.534Z,8.00
2023-12-08T18:04:12.217Z,7.90
2023-12-08T18:06:39.292Z,7.90
2023-12-08T18:09:09.661Z,7.80
2023-12-08T18:11:39.199Z,7.80
2023-12-08T18:14:06.179Z,7.80
2023-12-08T18:16:34.648Z,7.80
2023-12-08T18:19:01.773Z,7.80
2023-12-08T18:21:38.088Z,7.80
2023-12-08T18:24:07.823Z,7.80
2023-12-08T18:26:37.306Z,7.80
2023-12-08T18:29:09.524Z,7.70
2023-12-08T18:31:39.866Z,7.70
2023-12-08T18:34:09.870Z,7.80
2023-12-08T18:36:41.957Z,7.80
2023-12-08T18:39:09.127Z,7.80
2023-12-08T18:41:36.263Z,7.80
2023-12-08T18:44:07.731Z,7.80
2023-12-08T18:46:34.765Z,7.80
2023-12-08T18:49:02.610Z,7.80
2023-12-08T18:51:29.981Z,7.80
2023-12-08T18:54:01.859Z,7.80
2023-12-08T18:56:33.702Z,7.80
2023-12-08T18:59:00.641Z,7.80
2023-12-08T19:01:30.020Z,7.80
2023-12-08T19:03:59.206Z,7.80
2023-12-08T19:06:26.225Z,7.80
2023-12-08T19:08:56.327Z,7.80
2023-12-08T19:11:23.393Z,7.80
2023-12-08T19:13:50.469Z,7.80
2023-12-08T19:16:17.406Z,7.80
2023-12-08T19:18:45.212Z,7.80
2023-12-08T19:21:12.429Z,7.80
2023-12-08T19:23:42.110Z,7.80
2023-12-08T19:26:09.072Z,7.80
2023-12-08T19:28:36.085Z,7.80
2023-12-08T19:31:04.897Z,7.80
2023-12-08T19:33:34.346Z,7.80
2023-12-08T19:36:05.438Z,7.80
2023-12-08T19:38:35.029Z,7.80
2023-12-08T19:41:02.411Z,7.90
2023-12-08T19:43:29.543Z,8.00
2023-12-08T19:45:58.669Z,8.00
2023-12-08T19:48:25.748Z,8.00
2023-12-08T19:50:52.794Z,8.00
2023-12-08T19:53:19.795Z,8.00
2023-12-08T19:55:49.078Z,8.00
2023-12-08T19:58:18.367Z,8.00
2023-12-08T20:00:45.348Z,8.00
2023-12-08T20:03:14.595Z,8.00
2023-12-08T20:05:41.688Z,8.00
2023-12-08T20:08:11.121Z,8.00
2023-12-08T20:10:41.456Z,8.00
2023-12-08T20:13:08.427Z,8.00
2023-12-08T20:15:35.560Z,8.00
2023-12-08T20:18:08.043Z,8.00
2023-12-08T20:20:37.259Z,8.00
2023-12-08T20:23:04.199Z,8.00
2023-12-08T20:25:33.287Z,8.00
2023-12-08T20:28:02.745Z,8.00
2023-12-08T20:30:30.952Z,8.00
2023-12-08T20:33:00.649Z,8.00
2023-12-08T20:35:28.158Z,8.00
2023-12-08T20:37:57.498Z,8.00
2023-12-08T20:40:27.391Z,7.90
2023-12-08T20:42:54.772Z,7.80
2023-12-08T20:45:22.490Z,7.80
2023-12-08T20:47:51.849Z,7.80
2023-12-08T20:50:19.956Z,7.80
2023-12-08T20:52:47.055Z,7.80
2023-12-08T20:55:16.222Z,7.80
2023-12-08T20:57:43.417Z,7.80
2023-12-08T21:00:10.652Z,7.80
2023-12-08T21:02:37.756Z,7.70
2023-12-08T21:05:05.309Z,7.60
2023-12-08T21:07:34.649Z,7.60
2023-12-08T21:10:01.708Z,7.60
2023-12-08T21:12:28.756Z,7.50
2023-12-08T21:14:55.854Z,7.50
2023-12-08T21:17:23.315Z,7.50
2023-12-08T21:19:50.291Z,7.50
2023-12-08T21:22:18.052Z,7.40
2023-12-08T21:24:45.180Z,7.50
2023-12-08T21:27:15.442Z,7.40
2023-12-08T21:29:42.515Z,7.40
2023-12-08T21:32:12.001Z,7.40
2023-12-08T21:34:39.120Z,7.40
2023-12-08T21:37:06.100Z,7.30
2023-12-08T21:39:33.132Z,7.30
2023-12-08T21:42:00.600Z,7.20
2023-12-08T21:44:32.305Z,7.20
2023-12-08T21:47:01.307Z,7.30
2023-12-08T21:49:30.663Z,7.30
2023-12-08T21:51:59.879Z,7.30
2023-12-08T21:54:26.952Z,7.30
2023-12-08T21:56:56.543Z,7.30
2023-12-08T21:59:25.586Z,7.20
2023-12-08T22:01:54.746Z,7.20
2023-12-08T22:04:26.673Z,7.20
2023-12-08T22:06:53.619Z,7.30
2023-12-08T22:09:20.617Z,7.40
2023-12-08T22:11:47.684Z,7.40
2023-12-08T22:14:14.672Z,7.50
2023-12-08T22:16:46.374Z,7.50
2023-12-08T22:19:13.444Z,7.50
2023-12-08T22:21:40.510Z,7.50
2023-12-08T22:24:07.582Z,7.60
2023-12-08T22:26:34.618Z,7.60
2023-12-08T22:29:04.328Z,7.60
2023-12-08T22:31:33.766Z,7.60
2023-12-08T22:34:00.838Z,7.60
2023-12-08T22:36:32.429Z,7.60
2023-12-08T22:39:04.195Z,7.60
2023-12-08T22:41:33.421Z,7.60
2023-12-08T22:44:04.502Z,7.50
2023-12-08T22:46:31.549Z,7.50
2023-12-08T22:48:58.553Z,7.50
2023-12-08T22:51:38.188Z,7.60
2023-12-08T22:54:17.244Z,7.60
2023-12-08T22:56:48.373Z,7.60
2023-12-08T22:59:15.389Z,7.60
2023-12-08T23:01:44.498Z,7.60
2023-12-08T23:04:11.976Z,7.70
2023-12-08T23:06:39.781Z,7.70
2023-12-08T23:09:08.042Z,7.70
2023-12-08T23:11:37.191Z,7.70
2023-12-08T23:14:06.412Z,7.80
2023-12-08T23:16:33.899Z,7.80
2023-12-08T23:19:03.084Z,7.80
2023-12-08T23:21:30.212Z,7.80
2023-12-08T23:23:59.340Z,7.80
2023-12-08T23:26:27.399Z,7.80
2023-12-08T23:28:56.756Z,7.80
2023-12-08T23:31:26.062Z,7.90
2023-12-08T23:33:55.937Z,7.90
2023-12-08T23:36:23.603Z,7.80
2023-12-08T23:38:50.694Z,7.80
2023-12-08T23:41:20.168Z,7.80
2023-12-08T23:43:51.907Z,7.80
2023-12-08T23:46:22.699Z,7.80
2023-12-08T23:48:52.172Z,7.80
2023-12-08T23:51:21.840Z,7.80
2023-12-08T23:53:48.822Z,7.70
2023-12-08T23:56:20.732Z,7.70
2023-12-08T23:58:53.304Z,7.70
